CA-0031 weather

CLOSED Austin Airport
Manitoba, Canada

Public forecast

Using degrees Celsius for public forecast. Weather courtesy of forecast.io.

METAR (pilot weather report)

Closest report is Southport Airport, 24.9 nm (46.1 km) E. Retrieved 2019/05/22 14:00 UTC (5 minutes ago):

CYPG 221400Z 07009KT 15SM FEW100 OVC150 13/02 A2983 RMK AC1AS8 SLP106

TAF (pilot weather forecast)

Closest forecast is Southport Airport, 24.9 nm (46.1 km) E. Retrieved 2019/05/22 12:18 UTC (2 hours ago):

TAF TAF CYPG 221215Z 2212/2224 08008G18KT P6SM FEW120 OVC180 FM221500 08012G22KT P6SM SCT040 OVC120 FM221700 06018G28KT P6SM BKN040 OVC080 TEMPO 2217/2224 P6SM -SHRA RMK NXT FCST BY 221800Z